UAL2394 KEWR-KSRQ
Flight info
| Callsign | UAL2394 |
|---|---|
| Flight time | N/A |
| Altitude | 38000 |
| Route | BIGGY Q75 SLOJO Q103 PUPYY KYYUU LUBBR4 |
| Aircraft | A319/M-SDE3FGHIRWY/LB1 |
Departure
| Time | 2026-05-04 18:54 |
|---|---|
| Airport | Newark Liberty International Airport (KEWR) |
Arrival
| Time | N/A |
|---|---|
| Airport | Sarasota Bradenton International Airport (KSRQ) |
| Time | Latitude | Longitude | Altitude | Speed | Heading |
|---|---|---|---|---|---|
| 2026-05-04 18:30 | 40.68434 | -74.18283 | 23 ft | 0 kts | 185° |
| 2026-05-04 18:44 | 40.68437 | -74.18283 | 24 ft | 3 kts | 185° |
| 2026-05-04 18:44 | 40.68482 | -74.18282 | 22 ft | 4 kts | 176° |
| 2026-05-04 18:44 | 40.68509 | -74.18285 | 24 ft | 4 kts | 170° |
| 2026-05-04 18:45 | 40.68535 | -74.18293 | 23 ft | 4 kts | 161° |
| 2026-05-04 18:45 | 40.68559 | -74.18308 | 24 ft | 4 kts | 140° |
| 2026-05-04 18:45 | 40.68572 | -74.18330 | 23 ft | 1 kts | 95° |
| 2026-05-04 18:48 | 40.68570 | -74.18301 | 23 ft | 12 kts | 95° |
| 2026-05-04 18:48 | 40.68568 | -74.18165 | 22 ft | 17 kts | 84° |
| 2026-05-04 18:49 | 40.68571 | -74.18002 | 22 ft | 19 kts | 110° |
| 2026-05-04 18:49 | 40.68513 | -74.17838 | 22 ft | 21 kts | 115° |
| 2026-05-04 18:49 | 40.68448 | -74.17659 | 22 ft | 22 kts | 115° |
| 2026-05-04 18:49 | 40.68454 | -74.17524 | 25 ft | 16 kts | 30° |
| 2026-05-04 18:50 | 40.68558 | -74.17459 | 23 ft | 17 kts | 25° |
| 2026-05-04 18:50 | 40.68670 | -74.17388 | 23 ft | 18 kts | 26° |
| 2026-05-04 18:50 | 40.68789 | -74.17312 | 23 ft | 20 kts | 26° |
| 2026-05-04 18:50 | 40.68916 | -74.17231 | 22 ft | 21 kts | 26° |
| 2026-05-04 18:51 | 40.69053 | -74.17144 | 22 ft | 23 kts | 26° |
| 2026-05-04 18:51 | 40.69200 | -74.17050 | 22 ft | 24 kts | 26° |
| 2026-05-04 18:51 | 40.69352 | -74.16954 | 22 ft | 25 kts | 25° |
| 2026-05-04 18:51 | 40.69510 | -74.16851 | 22 ft | 26 kts | 27° |
| 2026-05-04 18:52 | 40.69676 | -74.16747 | 22 ft | 25 kts | 25° |
| 2026-05-04 18:52 | 40.69815 | -74.16657 | 21 ft | 19 kts | 26° |
| 2026-05-04 18:52 | 40.69905 | -74.16584 | 21 ft | 7 kts | 70° |
| 2026-05-04 18:52 | 40.69906 | -74.16579 | 21 ft | 0 kts | 77° |
| 2026-05-04 18:53 | 40.69906 | -74.16577 | 21 ft | 2 kts | 78° |
| 2026-05-04 18:53 | 40.69905 | -74.16518 | 20 ft | 12 kts | 95° |
| 2026-05-04 18:53 | 40.69823 | -74.16494 | 20 ft | 18 kts | 205° |
| 2026-05-04 18:54 | 40.69601 | -74.16634 | 23 ft | 61 kts | 206° |
| 2026-05-04 18:54 | 40.69041 | -74.16993 | 23 ft | 117 kts | 206° |
| 2026-05-04 18:54 | 40.68171 | -74.17546 | 196 ft | 149 kts | 209° |
| 2026-05-04 18:54 | 40.67205 | -74.18034 | 846 ft | 152 kts | 191° |
| 2026-05-04 18:55 | 40.66136 | -74.17835 | 1509 ft | 162 kts | 171° |
| 2026-05-04 18:55 | 40.64029 | -74.18661 | 2292 ft | 178 kts | 230° |
| 2026-05-04 18:55 | 40.63028 | -74.19796 | 2559 ft | 206 kts | 215° |
| 2026-05-04 18:56 | 40.61697 | -74.20791 | 3077 ft | 232 kts | 210° |
| 2026-05-04 18:56 | 40.60232 | -74.21866 | 3733 ft | 248 kts | 218° |
| 2026-05-04 18:56 | 40.59150 | -74.23597 | 4001 ft | 248 kts | 244° |
| 2026-05-04 18:56 | 40.58814 | -74.25820 | 4923 ft | 251 kts | 265° |
| 2026-05-04 18:57 | 40.58768 | -74.28120 | 5978 ft | 251 kts | 268° |
| 2026-05-04 18:57 | 40.58694 | -74.30416 | 7063 ft | 251 kts | 268° |
| 2026-05-04 18:57 | 40.58593 | -74.32717 | 8030 ft | 254 kts | 268° |
| 2026-05-04 18:57 | 40.58490 | -74.35061 | 8952 ft | 259 kts | 268° |
| 2026-05-04 18:58 | 40.58389 | -74.37454 | 9877 ft | 264 kts | 267° |
| 2026-05-04 18:58 | 40.58302 | -74.39927 | 10409 ft | 282 kts | 268° |